sensor_id;sensor_type;location;lat;lon;timestamp;temperature;humidity
76789;DHT22;65740;52.464;13.446;2022-12-18T00:02:13;17.40;35.90
76789;DHT22;65740;52.464;13.446;2022-12-18T00:04:39;17.30;35.80
76789;DHT22;65740;52.464;13.446;2022-12-18T00:07:04;17.30;35.70
76789;DHT22;65740;52.464;13.446;2022-12-18T00:09:30;17.30;35.70
76789;DHT22;65740;52.464;13.446;2022-12-18T00:11:56;17.30;35.70
76789;DHT22;65740;52.464;13.446;2022-12-18T00:14:21;17.30;35.80
76789;DHT22;65740;52.464;13.446;2022-12-18T00:16:47;17.30;35.50
76789;DHT22;65740;52.464;13.446;2022-12-18T00:19:14;17.30;35.60
76789;DHT22;65740;52.464;13.446;2022-12-18T00:21:40;17.30;35.60
76789;DHT22;65740;52.464;13.446;2022-12-18T00:24:06;17.30;35.90
76789;DHT22;65740;52.464;13.446;2022-12-18T00:26:33;17.30;35.60
76789;DHT22;65740;52.464;13.446;2022-12-18T00:29:06;17.30;35.50
76789;DHT22;65740;52.464;13.446;2022-12-18T00:31:33;17.30;35.60
76789;DHT22;65740;52.464;13.446;2022-12-18T00:33:59;17.30;35.60
76789;DHT22;65740;52.464;13.446;2022-12-18T00:36:30;17.30;35.40
76789;DHT22;65740;52.464;13.446;2022-12-18T00:38:57;17.30;36.10
76789;DHT22;65740;52.464;13.446;2022-12-18T00:41:23;17.30;35.30
76789;DHT22;65740;52.464;13.446;2022-12-18T00:44:10;17.30;35.40
76789;DHT22;65740;52.464;13.446;2022-12-18T00:46:37;17.30;35.30
76789;DHT22;65740;52.464;13.446;2022-12-18T00:49:03;17.30;35.30
76789;DHT22;65740;52.464;13.446;2022-12-18T00:51:29;17.30;35.40
76789;DHT22;65740;52.464;13.446;2022-12-18T00:53:55;17.30;35.20
76789;DHT22;65740;52.464;13.446;2022-12-18T00:56:21;17.30;35.30
76789;DHT22;65740;52.464;13.446;2022-12-18T00:58:47;17.30;35.30
76789;DHT22;65740;52.464;13.446;2022-12-18T01:01:12;17.30;35.30
76789;DHT22;65740;52.464;13.446;2022-12-18T01:03:38;17.30;35.30
76789;DHT22;65740;52.464;13.446;2022-12-18T01:06:09;17.30;35.30
76789;DHT22;65740;52.464;13.446;2022-12-18T01:08:35;17.30;35.20
76789;DHT22;65740;52.464;13.446;2022-12-18T01:11:06;17.30;35.20
76789;DHT22;65740;52.464;13.446;2022-12-18T01:13:32;17.20;35.10
76789;DHT22;65740;52.464;13.446;2022-12-18T01:15:58;17.20;35.10
76789;DHT22;65740;52.464;13.446;2022-12-18T01:18:23;17.30;35.20
76789;DHT22;65740;52.464;13.446;2022-12-18T01:20:49;17.20;35.10
76789;DHT22;65740;52.464;13.446;2022-12-18T01:23:14;17.30;35.20
76789;DHT22;65740;52.464;13.446;2022-12-18T01:25:40;17.20;35.20
76789;DHT22;65740;52.464;13.446;2022-12-18T01:28:05;17.20;35.10
76789;DHT22;65740;52.464;13.446;2022-12-18T01:30:31;17.20;35.10
76789;DHT22;65740;52.464;13.446;2022-12-18T01:32:57;17.20;35.10
76789;DHT22;65740;52.464;13.446;2022-12-18T01:35:22;17.20;35.10
76789;DHT22;65740;52.464;13.446;2022-12-18T01:37:48;17.20;35.10
76789;DHT22;65740;52.464;13.446;2022-12-18T01:40:14;17.20;35.10
76789;DHT22;65740;52.464;13.446;2022-12-18T01:42:39;17.20;35.10
76789;DHT22;65740;52.464;13.446;2022-12-18T01:52:46;17.30;35.20
76789;DHT22;65740;52.464;13.446;2022-12-18T01:55:15;17.20;35.10
76789;DHT22;65740;52.464;13.446;2022-12-18T01:57:42;17.20;35.10
76789;DHT22;65740;52.464;13.446;2022-12-18T02:00:15;17.20;35.10
76789;DHT22;65740;52.464;13.446;2022-12-18T02:02:42;17.20;35.10
76789;DHT22;65740;52.464;13.446;2022-12-18T02:05:10;17.20;35.10
76789;DHT22;65740;52.464;13.446;2022-12-18T02:10:27;17.20;35.10
76789;DHT22;65740;52.464;13.446;2022-12-18T02:16:21;17.20;35.10
76789;DHT22;65740;52.464;13.446;2022-12-18T02:18:52;17.20;35.80
76789;DHT22;65740;52.464;13.446;2022-12-18T02:22:06;17.20;35.10
76789;DHT22;65740;52.464;13.446;2022-12-18T02:27:27;17.20;35.10
76789;DHT22;65740;52.464;13.446;2022-12-18T02:29:55;17.20;35.10
76789;DHT22;65740;52.464;13.446;2022-12-18T02:32:26;17.20;35.10
76789;DHT22;65740;52.464;13.446;2022-12-18T02:34:55;17.20;35.10
76789;DHT22;65740;52.464;13.446;2022-12-18T02:37:23;17.20;35.10
76789;DHT22;65740;52.464;13.446;2022-12-18T02:39:51;17.20;35.10
76789;DHT22;65740;52.464;13.446;2022-12-18T02:42:18;17.20;35.10
76789;DHT22;65740;52.464;13.446;2022-12-18T02:44:46;17.20;35.10
76789;DHT22;65740;52.464;13.446;2022-12-18T02:47:14;17.20;35.10
76789;DHT22;65740;52.464;13.446;2022-12-18T02:55:28;17.20;35.10
76789;DHT22;65740;52.464;13.446;2022-12-18T02:58:06;17.20;35.10
76789;DHT22;65740;52.464;13.446;2022-12-18T03:00:40;17.20;35.10
76789;DHT22;65740;52.464;13.446;2022-12-18T03:03:11;17.20;35.20
76789;DHT22;65740;52.464;13.446;2022-12-18T03:06:02;17.20;35.10
76789;DHT22;65740;52.464;13.446;2022-12-18T03:08:33;17.30;35.20
76789;DHT22;65740;52.464;13.446;2022-12-18T03:11:09;17.30;35.20
76789;DHT22;65740;52.464;13.446;2022-12-18T03:13:51;17.30;35.20
76789;DHT22;65740;52.464;13.446;2022-12-18T03:16:24;17.30;35.20
76789;DHT22;65740;52.464;13.446;2022-12-18T03:18:58;17.20;35.10
76789;DHT22;65740;52.464;13.446;2022-12-18T03:21:40;17.30;35.20
76789;DHT22;65740;52.464;13.446;2022-12-18T03:24:09;17.30;35.20
76789;DHT22;65740;52.464;13.446;2022-12-18T03:26:39;17.30;35.20
76789;DHT22;65740;52.464;13.446;2022-12-18T03:29:13;17.20;35.10
76789;DHT22;65740;52.464;13.446;2022-12-18T03:31:41;17.30;36.00
76789;DHT22;65740;52.464;13.446;2022-12-18T03:34:13;17.30;35.20
76789;DHT22;65740;52.464;13.446;2022-12-18T03:36:40;17.30;35.20
76789;DHT22;65740;52.464;13.446;2022-12-18T03:39:06;17.30;35.20
76789;DHT22;65740;52.464;13.446;2022-12-18T03:41:34;17.30;35.20
76789;DHT22;65740;52.464;13.446;2022-12-18T03:44:12;17.30;35.20
76789;DHT22;65740;52.464;13.446;2022-12-18T03:47:00;17.30;35.20
76789;DHT22;65740;52.464;13.446;2022-12-18T03:52:27;17.20;35.10
76789;DHT22;65740;52.464;13.446;2022-12-18T03:54:55;17.30;35.20
76789;DHT22;65740;52.464;13.446;2022-12-18T03:57:24;17.30;35.20
76789;DHT22;65740;52.464;13.446;2022-12-18T03:59:55;17.20;35.80
76789;DHT22;65740;52.464;13.446;2022-12-18T04:02:23;17.30;35.20
76789;DHT22;65740;52.464;13.446;2022-12-18T04:04:52;17.30;35.20
76789;DHT22;65740;52.464;13.446;2022-12-18T04:07:19;17.30;35.20
76789;DHT22;65740;52.464;13.446;2022-12-18T04:09:48;17.30;35.20
76789;DHT22;65740;52.464;13.446;2022-12-18T04:12:14;17.30;35.20
76789;DHT22;65740;52.464;13.446;2022-12-18T04:14:40;17.30;35.20
76789;DHT22;65740;52.464;13.446;2022-12-18T04:17:06;17.30;35.20
76789;DHT22;65740;52.464;13.446;2022-12-18T04:19:31;17.30;35.20
76789;DHT22;65740;52.464;13.446;2022-12-18T04:21:57;17.30;35.20
76789;DHT22;65740;52.464;13.446;2022-12-18T04:24:22;17.30;35.20
76789;DHT22;65740;52.464;13.446;2022-12-18T04:26:48;17.30;35.30
76789;DHT22;65740;52.464;13.446;2022-12-18T04:29:14;17.30;35.20
76789;DHT22;65740;52.464;13.446;2022-12-18T04:31:39;17.30;35.90
76789;DHT22;65740;52.464;13.446;2022-12-18T04:34:05;17.30;35.20
76789;DHT22;65740;52.464;13.446;2022-12-18T04:36:30;17.30;35.20
76789;DHT22;65740;52.464;13.446;2022-12-18T04:38:56;17.30;35.20
76789;DHT22;65740;52.464;13.446;2022-12-18T04:41:21;17.30;35.20
76789;DHT22;65740;52.464;13.446;2022-12-18T04:43:47;17.30;35.90
76789;DHT22;65740;52.464;13.446;2022-12-18T04:46:13;17.30;35.20
76789;DHT22;65740;52.464;13.446;2022-12-18T04:48:39;17.30;35.20
76789;DHT22;65740;52.464;13.446;2022-12-18T04:51:05;17.30;35.10
76789;DHT22;65740;52.464;13.446;2022-12-18T04:53:31;17.30;35.10
76789;DHT22;65740;52.464;13.446;2022-12-18T04:56:10;17.30;35.10
76789;DHT22;65740;52.464;13.446;2022-12-18T04:58:37;17.30;35.10
76789;DHT22;65740;52.464;13.446;2022-12-18T05:01:05;17.30;35.20
76789;DHT22;65740;52.464;13.446;2022-12-18T05:03:31;17.30;35.20
76789;DHT22;65740;52.464;13.446;2022-12-18T05:05:57;17.30;35.20
76789;DHT22;65740;52.464;13.446;2022-12-18T05:08:23;17.30;35.20
76789;DHT22;65740;52.464;13.446;2022-12-18T05:10:48;17.30;35.10
76789;DHT22;65740;52.464;13.446;2022-12-18T05:13:14;17.30;35.20
76789;DHT22;65740;52.464;13.446;2022-12-18T05:15:39;17.30;35.20
76789;DHT22;65740;52.464;13.446;2022-12-18T05:18:05;17.20;35.00
76789;DHT22;65740;52.464;13.446;2022-12-18T05:20:31;17.30;35.10
76789;DHT22;65740;52.464;13.446;2022-12-18T05:22:57;17.20;34.80
76789;DHT22;65740;52.464;13.446;2022-12-18T05:25:23;17.30;34.90
76789;DHT22;65740;52.464;13.446;2022-12-18T05:27:49;17.20;34.70
76789;DHT22;65740;52.464;13.446;2022-12-18T05:30:15;17.30;34.80
76789;DHT22;65740;52.464;13.446;2022-12-18T05:32:41;17.30;34.80
76789;DHT22;65740;52.464;13.446;2022-12-18T05:35:09;17.30;34.70
76789;DHT22;65740;52.464;13.446;2022-12-18T05:37:35;17.30;34.70
76789;DHT22;65740;52.464;13.446;2022-12-18T05:40:01;17.30;34.90
76789;DHT22;65740;52.464;13.446;2022-12-18T05:42:27;17.30;34.80
76789;DHT22;65740;52.464;13.446;2022-12-18T05:44:52;17.30;34.80
76789;DHT22;65740;52.464;13.446;2022-12-18T05:47:18;17.30;34.70
76789;DHT22;65740;52.464;13.446;2022-12-18T05:49:43;17.30;34.80
76789;DHT22;65740;52.464;13.446;2022-12-18T05:52:09;17.30;34.70
76789;DHT22;65740;52.464;13.446;2022-12-18T05:54:34;17.30;34.80
76789;DHT22;65740;52.464;13.446;2022-12-18T05:57:00;17.30;34.70
76789;DHT22;65740;52.464;13.446;2022-12-18T05:59:26;17.30;34.70
76789;DHT22;65740;52.464;13.446;2022-12-18T06:01:52;17.30;34.70
76789;DHT22;65740;52.464;13.446;2022-12-18T06:04:17;17.20;34.60
76789;DHT22;65740;52.464;13.446;2022-12-18T06:06:43;17.30;34.60
76789;DHT22;65740;52.464;13.446;2022-12-18T06:09:08;17.20;34.60
76789;DHT22;65740;52.464;13.446;2022-12-18T06:11:37;17.20;34.60
76789;DHT22;65740;52.464;13.446;2022-12-18T06:14:05;17.30;34.70
76789;DHT22;65740;52.464;13.446;2022-12-18T06:16:31;17.20;34.60
76789;DHT22;65740;52.464;13.446;2022-12-18T06:19:02;17.20;34.60
76789;DHT22;65740;52.464;13.446;2022-12-18T06:21:29;17.20;34.60
76789;DHT22;65740;52.464;13.446;2022-12-18T06:23:55;17.20;34.60
76789;DHT22;65740;52.464;13.446;2022-12-18T06:26:21;17.20;34.60
76789;DHT22;65740;52.464;13.446;2022-12-18T06:28:47;17.20;34.60
76789;DHT22;65740;52.464;13.446;2022-12-18T06:31:13;17.20;34.60
76789;DHT22;65740;52.464;13.446;2022-12-18T06:33:38;17.20;34.50
76789;DHT22;65740;52.464;13.446;2022-12-18T06:36:10;17.20;34.60
76789;DHT22;65740;52.464;13.446;2022-12-18T06:38:37;17.20;34.50
76789;DHT22;65740;52.464;13.446;2022-12-18T06:41:11;17.20;34.50
76789;DHT22;65740;52.464;13.446;2022-12-18T06:43:38;17.20;34.40
76789;DHT22;65740;52.464;13.446;2022-12-18T06:46:04;17.20;34.40
76789;DHT22;65740;52.464;13.446;2022-12-18T06:48:30;17.20;34.40
76789;DHT22;65740;52.464;13.446;2022-12-18T06:50:56;17.20;34.30
76789;DHT22;65740;52.464;13.446;2022-12-18T06:53:22;17.20;34.30
76789;DHT22;65740;52.464;13.446;2022-12-18T06:55:47;17.20;34.30
76789;DHT22;65740;52.464;13.446;2022-12-18T06:58:13;17.20;34.40
76789;DHT22;65740;52.464;13.446;2022-12-18T07:00:38;17.20;34.30
76789;DHT22;65740;52.464;13.446;2022-12-18T07:03:04;17.20;34.30
76789;DHT22;65740;52.464;13.446;2022-12-18T07:05:30;17.20;34.30
76789;DHT22;65740;52.464;13.446;2022-12-18T07:07:55;17.20;35.00
76789;DHT22;65740;52.464;13.446;2022-12-18T07:10:21;17.20;34.30
76789;DHT22;65740;52.464;13.446;2022-12-18T07:12:47;17.20;34.30
76789;DHT22;65740;52.464;13.446;2022-12-18T07:15:12;17.20;34.80
76789;DHT22;65740;52.464;13.446;2022-12-18T07:17:38;17.20;34.30
76789;DHT22;65740;52.464;13.446;2022-12-18T07:20:04;17.20;34.20
76789;DHT22;65740;52.464;13.446;2022-12-18T07:22:30;17.20;34.30
76789;DHT22;65740;52.464;13.446;2022-12-18T07:24:55;17.20;34.20
76789;DHT22;65740;52.464;13.446;2022-12-18T07:27:22;17.20;34.30
76789;DHT22;65740;52.464;13.446;2022-12-18T07:29:47;17.20;34.20
76789;DHT22;65740;52.464;13.446;2022-12-18T07:32:13;17.20;34.20
76789;DHT22;65740;52.464;13.446;2022-12-18T07:34:39;17.20;34.20
76789;DHT22;65740;52.464;13.446;2022-12-18T07:37:04;17.20;34.30
76789;DHT22;65740;52.464;13.446;2022-12-18T07:39:30;17.20;34.20
76789;DHT22;65740;52.464;13.446;2022-12-18T07:41:55;17.20;34.30
76789;DHT22;65740;52.464;13.446;2022-12-18T07:44:40;17.20;34.20
76789;DHT22;65740;52.464;13.446;2022-12-18T07:47:06;17.20;34.30
76789;DHT22;65740;52.464;13.446;2022-12-18T07:49:31;17.20;34.30
76789;DHT22;65740;52.464;13.446;2022-12-18T07:51:57;17.20;34.30
76789;DHT22;65740;52.464;13.446;2022-12-18T07:54:24;17.20;35.00
76789;DHT22;65740;52.464;13.446;2022-12-18T07:56:50;17.20;34.20
76789;DHT22;65740;52.464;13.446;2022-12-18T07:59:16;17.20;34.20
76789;DHT22;65740;52.464;13.446;2022-12-18T08:01:42;17.20;34.20
76789;DHT22;65740;52.464;13.446;2022-12-18T08:04:08;17.20;34.30
76789;DHT22;65740;52.464;13.446;2022-12-18T08:06:33;17.20;34.20
76789;DHT22;65740;52.464;13.446;2022-12-18T08:08:59;17.10;34.10
76789;DHT22;65740;52.464;13.446;2022-12-18T08:11:26;17.20;34.20
76789;DHT22;65740;52.464;13.446;2022-12-18T08:13:53;17.20;34.20
76789;DHT22;65740;52.464;13.446;2022-12-18T08:16:19;17.20;34.10
76789;DHT22;65740;52.464;13.446;2022-12-18T08:18:45;17.20;34.10
76789;DHT22;65740;52.464;13.446;2022-12-18T08:23:38;17.20;34.10
76789;DHT22;65740;52.464;13.446;2022-12-18T08:26:04;17.20;34.10
76789;DHT22;65740;52.464;13.446;2022-12-18T08:28:29;17.20;34.10
76789;DHT22;65740;52.464;13.446;2022-12-18T08:30:55;17.20;34.10
76789;DHT22;65740;52.464;13.446;2022-12-18T08:33:21;17.20;34.00
76789;DHT22;65740;52.464;13.446;2022-12-18T08:35:46;17.20;34.10
76789;DHT22;65740;52.464;13.446;2022-12-18T08:38:12;17.20;34.10
76789;DHT22;65740;52.464;13.446;2022-12-18T08:40:37;17.20;34.10
76789;DHT22;65740;52.464;13.446;2022-12-18T08:43:03;17.20;34.10
76789;DHT22;65740;52.464;13.446;2022-12-18T08:45:47;17.20;34.10
76789;DHT22;65740;52.464;13.446;2022-12-18T08:48:12;17.20;34.10
76789;DHT22;65740;52.464;13.446;2022-12-18T08:50:38;17.20;34.00
76789;DHT22;65740;52.464;13.446;2022-12-18T08:53:04;17.20;34.10
76789;DHT22;65740;52.464;13.446;2022-12-18T08:55:29;17.20;34.10
76789;DHT22;65740;52.464;13.446;2022-12-18T08:57:55;17.20;34.10
76789;DHT22;65740;52.464;13.446;2022-12-18T09:00:20;17.20;34.00
76789;DHT22;65740;52.464;13.446;2022-12-18T09:02:46;17.20;34.00
76789;DHT22;65740;52.464;13.446;2022-12-18T09:05:11;17.20;34.10
76789;DHT22;65740;52.464;13.446;2022-12-18T09:07:37;17.20;34.10
76789;DHT22;65740;52.464;13.446;2022-12-18T09:10:03;17.20;34.10
76789;DHT22;65740;52.464;13.446;2022-12-18T09:12:29;17.20;34.10
76789;DHT22;65740;52.464;13.446;2022-12-18T09:14:54;17.10;34.00
76789;DHT22;65740;52.464;13.446;2022-12-18T09:17:21;17.10;33.90
76789;DHT22;65740;52.464;13.446;2022-12-18T09:19:47;17.20;34.10
76789;DHT22;65740;52.464;13.446;2022-12-18T09:22:13;17.10;33.90
76789;DHT22;65740;52.464;13.446;2022-12-18T09:24:38;17.20;34.70
76789;DHT22;65740;52.464;13.446;2022-12-18T09:27:04;17.20;34.00
76789;DHT22;65740;52.464;13.446;2022-12-18T09:29:30;17.20;33.90
76789;DHT22;65740;52.464;13.446;2022-12-18T09:31:55;17.20;34.10
76789;DHT22;65740;52.464;13.446;2022-12-18T09:34:21;17.20;34.00
76789;DHT22;65740;52.464;13.446;2022-12-18T09:36:47;17.20;34.00
76789;DHT22;65740;52.464;13.446;2022-12-18T09:39:13;17.20;34.10
76789;DHT22;65740;52.464;13.446;2022-12-18T09:41:46;17.20;34.00
76789;DHT22;65740;52.464;13.446;2022-12-18T09:46:58;17.20;34.50
76789;DHT22;65740;52.464;13.446;2022-12-18T09:49:30;17.20;34.00
76789;DHT22;65740;52.464;13.446;2022-12-18T09:54:32;17.20;34.10
76789;DHT22;65740;52.464;13.446;2022-12-18T09:56:58;17.20;34.00
76789;DHT22;65740;52.464;13.446;2022-12-18T09:59:29;17.20;34.10
76789;DHT22;65740;52.464;13.446;2022-12-18T10:01:56;17.10;34.00
76789;DHT22;65740;52.464;13.446;2022-12-18T10:04:22;17.20;34.00
76789;DHT22;65740;52.464;13.446;2022-12-18T10:07:17;17.20;34.10
76789;DHT22;65740;52.464;13.446;2022-12-18T10:12:41;17.20;34.00
76789;DHT22;65740;52.464;13.446;2022-12-18T10:15:23;17.20;34.00
76789;DHT22;65740;52.464;13.446;2022-12-18T10:20:34;17.20;34.00
76789;DHT22;65740;52.464;13.446;2022-12-18T10:26:05;17.10;33.90
76789;DHT22;65740;52.464;13.446;2022-12-18T10:28:33;17.20;34.00
76789;DHT22;65740;52.464;13.446;2022-12-18T10:30:59;17.20;34.10
76789;DHT22;65740;52.464;13.446;2022-12-18T10:33:28;17.10;34.00
76789;DHT22;65740;52.464;13.446;2022-12-18T10:35:54;17.20;34.10
76789;DHT22;65740;52.464;13.446;2022-12-18T10:38:23;17.10;34.00
76789;DHT22;65740;52.464;13.446;2022-12-18T10:40:59;17.10;33.90
76789;DHT22;65740;52.464;13.446;2022-12-18T10:46:02;17.20;34.00
76789;DHT22;65740;52.464;13.446;2022-12-18T10:48:30;17.20;33.50
76789;DHT22;65740;52.464;13.446;2022-12-18T10:50:56;17.20;34.00
76789;DHT22;65740;52.464;13.446;2022-12-18T10:53:28;17.20;34.10
76789;DHT22;65740;52.464;13.446;2022-12-18T10:55:56;17.20;34.00
76789;DHT22;65740;52.464;13.446;2022-12-18T10:58:30;17.20;34.00
76789;DHT22;65740;52.464;13.446;2022-12-18T11:01:16;17.20;34.10
76789;DHT22;65740;52.464;13.446;2022-12-18T11:06:24;17.20;34.80
76789;DHT22;65740;52.464;13.446;2022-12-18T11:09:20;17.20;34.10
76789;DHT22;65740;52.464;13.446;2022-12-18T11:11:51;17.20;34.10
76789;DHT22;65740;52.464;13.446;2022-12-18T11:16:48;17.20;34.10
76789;DHT22;65740;52.464;13.446;2022-12-18T11:19:36;17.20;34.10
76789;DHT22;65740;52.464;13.446;2022-12-18T11:22:21;17.20;34.20
76789;DHT22;65740;52.464;13.446;2022-12-18T11:27:38;17.20;34.10
76789;DHT22;65740;52.464;13.446;2022-12-18T11:35:40;17.20;34.10
76789;DHT22;65740;52.464;13.446;2022-12-18T11:38:23;17.20;34.20
76789;DHT22;65740;52.464;13.446;2022-12-18T11:43:43;17.20;34.10
76789;DHT22;65740;52.464;13.446;2022-12-18T11:46:34;17.20;34.20
76789;DHT22;65740;52.464;13.446;2022-12-18T11:49:04;17.20;34.10
76789;DHT22;65740;52.464;13.446;2022-12-18T11:51:37;17.20;34.20
76789;DHT22;65740;52.464;13.446;2022-12-18T11:54:14;17.20;34.30
76789;DHT22;65740;52.464;13.446;2022-12-18T11:56:49;17.20;34.20
76789;DHT22;65740;52.464;13.446;2022-12-18T12:05:19;17.20;34.20
76789;DHT22;65740;52.464;13.446;2022-12-18T12:07:38;17.20;34.20
76789;DHT22;65740;52.464;13.446;2022-12-18T12:21:31;17.20;34.30
76789;DHT22;65740;52.464;13.446;2022-12-18T12:37:54;17.20;34.40
76789;DHT22;65740;52.464;13.446;2022-12-18T12:40:27;17.20;34.30
76789;DHT22;65740;52.464;13.446;2022-12-18T12:42:58;17.20;34.30
76789;DHT22;65740;52.464;13.446;2022-12-18T12:48:48;17.20;34.30
76789;DHT22;65740;52.464;13.446;2022-12-18T12:51:55;17.20;34.30
76789;DHT22;65740;52.464;13.446;2022-12-18T12:54:17;17.20;34.40
76789;DHT22;65740;52.464;13.446;2022-12-18T13:07:51;17.20;34.40
76789;DHT22;65740;52.464;13.446;2022-12-18T13:13:05;17.20;34.40
76789;DHT22;65740;52.464;13.446;2022-12-18T13:18:23;17.20;34.40
76789;DHT22;65740;52.464;13.446;2022-12-18T13:20:50;17.20;34.40
76789;DHT22;65740;52.464;13.446;2022-12-18T13:31:07;17.30;34.50
76789;DHT22;65740;52.464;13.446;2022-12-18T13:36:23;17.30;34.40
76789;DHT22;65740;52.464;13.446;2022-12-18T13:41:35;17.30;35.20
76789;DHT22;65740;52.464;13.446;2022-12-18T13:51:41;17.30;34.60
76789;DHT22;65740;52.464;13.446;2022-12-18T13:54:36;17.30;34.60
76789;DHT22;65740;52.464;13.446;2022-12-18T13:57:04;17.30;34.50
76789;DHT22;65740;52.464;13.446;2022-12-18T13:59:39;17.30;34.60
76789;DHT22;65740;52.464;13.446;2022-12-18T14:02:16;17.30;35.20
76789;DHT22;65740;52.464;13.446;2022-12-18T14:04:45;17.30;34.60
76789;DHT22;65740;52.464;13.446;2022-12-18T14:07:15;17.30;34.60
76789;DHT22;65740;52.464;13.446;2022-12-18T14:09:44;17.30;34.60
76789;DHT22;65740;52.464;13.446;2022-12-18T14:12:34;17.30;34.60
76789;DHT22;65740;52.464;13.446;2022-12-18T14:15:33;17.30;34.50
76789;DHT22;65740;52.464;13.446;2022-12-18T14:20:47;17.30;34.50
76789;DHT22;65740;52.464;13.446;2022-12-18T14:25:58;17.30;34.50
76789;DHT22;65740;52.464;13.446;2022-12-18T14:28:24;17.30;34.50
76789;DHT22;65740;52.464;13.446;2022-12-18T14:30:51;17.30;34.60
76789;DHT22;65740;52.464;13.446;2022-12-18T14:33:21;17.30;34.50
76789;DHT22;65740;52.464;13.446;2022-12-18T14:35:59;17.30;34.60
76789;DHT22;65740;52.464;13.446;2022-12-18T14:38:30;17.30;34.60
76789;DHT22;65740;52.464;13.446;2022-12-18T14:41:06;17.30;34.60
76789;DHT22;65740;52.464;13.446;2022-12-18T14:43:36;17.30;34.60
76789;DHT22;65740;52.464;13.446;2022-12-18T14:46:05;17.30;34.60
76789;DHT22;65740;52.464;13.446;2022-12-18T14:48:38;17.30;34.50
76789;DHT22;65740;52.464;13.446;2022-12-18T14:53:39;17.30;34.50
76789;DHT22;65740;52.464;13.446;2022-12-18T14:56:26;17.30;34.50
76789;DHT22;65740;52.464;13.446;2022-12-18T14:58:57;17.30;34.60
76789;DHT22;65740;52.464;13.446;2022-12-18T15:01:25;17.30;35.20
76789;DHT22;65740;52.464;13.446;2022-12-18T15:03:53;17.30;34.60
76789;DHT22;65740;52.464;13.446;2022-12-18T15:06:37;17.30;34.60
76789;DHT22;65740;52.464;13.446;2022-12-18T15:12:00;17.30;34.60
76789;DHT22;65740;52.464;13.446;2022-12-18T15:14:40;17.30;34.60
76789;DHT22;65740;52.464;13.446;2022-12-18T15:17:26;17.30;34.60
76789;DHT22;65740;52.464;13.446;2022-12-18T15:19:58;17.30;34.60
76789;DHT22;65740;52.464;13.446;2022-12-18T15:22:29;17.30;34.60
76789;DHT22;65740;52.464;13.446;2022-12-18T15:24:56;17.30;34.70
76789;DHT22;65740;52.464;13.446;2022-12-18T15:27:31;17.30;34.70
76789;DHT22;65740;52.464;13.446;2022-12-18T15:32:33;17.30;34.60
76789;DHT22;65740;52.464;13.446;2022-12-18T15:35:24;17.30;34.60
76789;DHT22;65740;52.464;13.446;2022-12-18T15:37:51;17.30;34.60
76789;DHT22;65740;52.464;13.446;2022-12-18T15:40:19;17.30;34.60
76789;DHT22;65740;52.464;13.446;2022-12-18T15:42:46;17.30;34.60
76789;DHT22;65740;52.464;13.446;2022-12-18T15:45:31;17.30;34.50
76789;DHT22;65740;52.464;13.446;2022-12-18T15:47:56;17.30;34.50
76789;DHT22;65740;52.464;13.446;2022-12-18T15:50:22;17.30;34.50
76789;DHT22;65740;52.464;13.446;2022-12-18T15:52:51;17.30;34.60
76789;DHT22;65740;52.464;13.446;2022-12-18T15:55:20;17.30;34.60
76789;DHT22;65740;52.464;13.446;2022-12-18T15:58:06;17.30;34.60
76789;DHT22;65740;52.464;13.446;2022-12-18T16:00:33;17.30;34.60
76789;DHT22;65740;52.464;13.446;2022-12-18T16:02:59;17.30;34.60
76789;DHT22;65740;52.464;13.446;2022-12-18T16:05:26;17.30;34.60
76789;DHT22;65740;52.464;13.446;2022-12-18T16:07:52;17.30;34.60
76789;DHT22;65740;52.464;13.446;2022-12-18T16:10:18;17.30;34.60
76789;DHT22;65740;52.464;13.446;2022-12-18T16:12:44;17.30;34.60
76789;DHT22;65740;52.464;13.446;2022-12-18T16:15:14;17.30;35.30
76789;DHT22;65740;52.464;13.446;2022-12-18T16:17:41;17.30;34.60
76789;DHT22;65740;52.464;13.446;2022-12-18T16:20:19;17.30;34.60
76789;DHT22;65740;52.464;13.446;2022-12-18T16:22:46;17.30;34.50
76789;DHT22;65740;52.464;13.446;2022-12-18T16:25:18;17.30;34.50
76789;DHT22;65740;52.464;13.446;2022-12-18T16:27:48;17.30;34.50
76789;DHT22;65740;52.464;13.446;2022-12-18T16:30:19;17.30;34.60
76789;DHT22;65740;52.464;13.446;2022-12-18T16:32:45;17.30;34.60
76789;DHT22;65740;52.464;13.446;2022-12-18T16:35:13;17.20;34.50
76789;DHT22;65740;52.464;13.446;2022-12-18T16:37:39;17.30;34.50
76789;DHT22;65740;52.464;13.446;2022-12-18T16:40:07;17.30;34.50
76789;DHT22;65740;52.464;13.446;2022-12-18T16:42:35;17.30;34.50
76789;DHT22;65740;52.464;13.446;2022-12-18T16:45:01;17.30;34.40
76789;DHT22;65740;52.464;13.446;2022-12-18T16:47:27;17.30;34.50
76789;DHT22;65740;52.464;13.446;2022-12-18T16:49:52;17.30;34.50
76789;DHT22;65740;52.464;13.446;2022-12-18T16:52:18;17.20;34.40
76789;DHT22;65740;52.464;13.446;2022-12-18T16:54:44;17.20;34.40
76789;DHT22;65740;52.464;13.446;2022-12-18T16:57:16;17.20;34.40
76789;DHT22;65740;52.464;13.446;2022-12-18T16:59:42;17.20;34.50
76789;DHT22;65740;52.464;13.446;2022-12-18T17:02:16;17.20;34.50
76789;DHT22;65740;52.464;13.446;2022-12-18T17:04:43;17.20;34.50
76789;DHT22;65740;52.464;13.446;2022-12-18T17:07:09;17.30;34.60
76789;DHT22;65740;52.464;13.446;2022-12-18T17:09:35;17.30;34.40
76789;DHT22;65740;52.464;13.446;2022-12-18T17:12:01;17.20;34.30
76789;DHT22;65740;52.464;13.446;2022-12-18T17:14:26;17.20;34.40
76789;DHT22;65740;52.464;13.446;2022-12-18T17:16:53;17.20;34.40
76789;DHT22;65740;52.464;13.446;2022-12-18T17:19:19;17.20;34.50
76789;DHT22;65740;52.464;13.446;2022-12-18T17:21:48;17.20;34.40
76789;DHT22;65740;52.464;13.446;2022-12-18T17:24:14;17.20;34.40
76789;DHT22;65740;52.464;13.446;2022-12-18T17:26:40;17.20;34.30
76789;DHT22;65740;52.464;13.446;2022-12-18T17:29:06;17.20;34.40
76789;DHT22;65740;52.464;13.446;2022-12-18T17:31:33;17.20;34.40
76789;DHT22;65740;52.464;13.446;2022-12-18T17:34:01;17.20;34.30
76789;DHT22;65740;52.464;13.446;2022-12-18T17:36:27;17.20;34.30
76789;DHT22;65740;52.464;13.446;2022-12-18T17:38:58;17.20;34.30
76789;DHT22;65740;52.464;13.446;2022-12-18T17:41:25;17.20;34.40
76789;DHT22;65740;52.464;13.446;2022-12-18T17:43:55;17.20;34.40
76789;DHT22;65740;52.464;13.446;2022-12-18T17:46:22;17.20;34.40
76789;DHT22;65740;52.464;13.446;2022-12-18T17:48:48;17.20;34.40
76789;DHT22;65740;52.464;13.446;2022-12-18T17:51:14;17.30;34.40
76789;DHT22;65740;52.464;13.446;2022-12-18T17:53:40;17.30;35.10